GMTN/TTU METAR and TAF weather

Enter ICAO airport designator
Station Type Date Time Source
GMTN METAR 2018/01/22 12:00 UTC NOAA

GMTN 221200Z 26011KT CAVOK 19/09 Q1027 NOSIG


Station Type Date Time Source
GMTN Decoded METAR 2018/01/22 12:00 UTC NOAA

Tetuan / Sania Ramel, Morocco (GMTN) 35-35N 005-20W 10M
Jan 22, 2018 - 07:00 AM EST / 2018.01.22 1200 UTC
Wind: from the W (260 degrees) at 13 MPH (11 KT):0
Visibility: greater than 7 mile(s):0
Temperature: 66 F (19 C)
Dew Point: 48 F (9 C)
Relative Humidity: 52%
Pressure (altimeter): 30.33 in. Hg (1027 hPa)
ob: GMTN 221200Z 26011KT CAVOK 19/09 Q1027 NOSIG
cycle: 12

Station Type Date Time Source
GMTN TAF UTC NOAA

Error!


Example: see airport list